Time;durP1;ratioP1;P1;durP2;ratioP2;P2;SDS_P1;SDS_P2;PMS_P1;PMS_P2;Temp;Humidity;BMP_temperature;BMP_pressure;BME280_temperature;BME280_humidity;BME280_pressure;Samples;Min_cycle;Max_cycle;Signal;HPM_P1;HPM_P2
2021/11/28 00:02:28;;;;;;;21.90;12.35;;;29.30;85.20;;;;;;5068087;28;20075;-50
2021/11/28 00:04:58;;;;;;;21.80;11.43;;;29.30;85.40;;;;;;5063511;28;20305;-56
2021/11/28 00:10:19;;;;;;;20.85;8.60;;;29.20;86.60;;;;;;5050953;28;20291;-56
2021/11/28 00:13:00;;;;;;;20.30;9.48;;;29.10;86.90;;;;;;5081055;28;20231;-58
2021/11/28 00:15:27;;;;;;;14.88;9.05;;;28.90;88.10;;;;;;5072992;28;20058;-54
2021/11/28 00:18:08;;;;;;;17.20;10.85;;;28.80;88.00;;;;;;5070387;28;20027;-56
2021/11/28 00:20:40;;;;;;;30.67;16.08;;;28.70;88.50;;;;;;5068011;28;20016;-58
2021/11/28 00:23:13;;;;;;;14.45;11.02;;;28.70;88.40;;;;;;5073620;28;20094;-57
2021/11/28 00:25:48;;;;;;;39.65;29.15;;;28.70;88.10;;;;;;5073033;28;20088;-58
2021/11/28 00:28:17;;;;;;;39.90;32.03;;;28.60;88.20;;;;;;5078291;28;20025;-56
2021/11/28 00:31:05;;;;;;;47.88;37.50;;;28.60;88.10;;;;;;5065791;28;20017;-57
2021/11/28 00:33:35;;;;;;;60.92;51.65;;;28.60;88.20;;;;;;5063363;28;20029;-59
2021/11/28 00:36:03;;;;;;;51.15;41.90;;;28.60;88.10;;;;;;5072960;28;20044;-55
2021/11/28 00:38:52;;;;;;;39.58;30.83;;;28.60;87.90;;;;;;5072531;28;20024;-57
2021/11/28 00:41:26;;;;;;;27.13;15.93;;;28.60;87.70;;;;;;5063369;28;20033;-62
2021/11/28 00:44:09;;;;;;;16.63;8.75;;;28.50;87.50;;;;;;5064580;28;20047;-61
2021/11/28 00:46:42;;;;;;;8.55;6.13;;;28.50;87.50;;;;;;5081478;28;20326;-58
2021/11/28 00:49:15;;;;;;;11.27;5.80;;;28.50;87.50;;;;;;5087469;28;20023;-57
2021/11/28 00:54:41;;;;;;;7.70;4.78;;;28.50;87.30;;;;;;5061328;28;20041;-60
2021/11/28 01:00:04;;;;;;;11.00;4.53;;;28.50;87.30;;;;;;5084363;28;20033;-58
2021/11/28 01:02:37;;;;;;;11.90;4.00;;;28.50;87.00;;;;;;5085586;28;20024;-61
2021/11/28 01:05:13;;;;;;;7.43;4.50;;;28.40;86.50;;;;;;5087707;28;20024;-59
2021/11/28 01:07:39;;;;;;;12.35;5.35;;;28.40;86.60;;;;;;5088202;28;20036;-60
2021/11/28 01:10:10;;;;;;;8.77;4.80;;;28.40;87.00;;;;;;5087965;28;20015;-61
2021/11/28 01:12:44;;;;;;;9.53;5.17;;;28.30;86.60;;;;;;5087329;28;20028;-57
2021/11/28 01:15:15;;;;;;;12.43;5.20;;;28.30;86.40;;;;;;5088276;28;20020;-61
2021/11/28 01:17:45;;;;;;;5.18;4.55;;;28.30;86.70;;;;;;5086643;28;20051;-57
2021/11/28 01:20:20;;;;;;;8.32;4.95;;;28.40;87.30;;;;;;5067875;28;20052;-58
2021/11/28 01:22:49;;;;;;;9.88;5.55;;;28.40;86.90;;;;;;5067699;28;20039;-57
2021/11/28 01:25:16;;;;;;;9.73;4.95;;;28.30;86.80;;;;;;5067532;28;20080;-55
2021/11/28 01:27:46;;;;;;;8.10;3.90;;;28.30;86.60;;;;;;5067974;28;20029;-60
2021/11/28 01:30:23;;;;;;;9.93;4.03;;;28.20;86.60;;;;;;5067131;28;20020;-60
2021/11/28 01:32:59;;;;;;;7.20;4.00;;;28.20;87.00;;;;;;5067572;28;20084;-64
2021/11/28 01:35:39;;;;;;;;;;;;;;;;;;;;;
2021/11/28 01:38:18;;;;;;;8.60;4.32;;;28.10;87.10;;;;;;5067697;28;20063;-61
2021/11/28 01:40:52;;;;;;;6.68;3.90;;;28.10;86.90;;;;;;5068561;28;20044;-58
2021/11/28 01:46:09;;;;;;;6.72;3.92;;;28.00;86.90;;;;;;5060376;28;20055;-60
2021/11/28 01:48:40;;;;;;;7.25;3.20;;;28.10;87.00;;;;;;5065905;28;20020;-62
2021/11/28 01:51:13;;;;;;;8.02;3.35;;;28.10;86.60;;;;;;5069502;28;20051;-55
2021/11/28 01:53:42;;;;;;;6.25;3.22;;;28.10;86.40;;;;;;5085683;28;20016;-54
2021/11/28 01:56:18;;;;;;;5.63;3.17;;;28.10;85.90;;;;;;5075313;28;20071;-60
2021/11/28 01:58:54;;;;;;;8.65;3.70;;;28.10;85.70;;;;;;5085536;28;20021;-58
2021/11/28 02:01:33;;;;;;;;;;;;;;;;;;;;;
2021/11/28 02:04:14;;;;;;;;;;;;;;;;;;;;;
2021/11/28 02:06:42;;;;;;;6.20;3.00;;;27.80;85.30;;;;;;5067202;28;20059;-60
2021/11/28 02:09:09;;;;;;;7.20;2.72;;;27.80;85.40;;;;;;5066528;28;20020;-59
2021/11/28 02:11:40;;;;;;;8.05;2.80;;;27.70;85.20;;;;;;5066757;28;20047;-59
2021/11/28 02:14:16;;;;;;;5.00;2.40;;;27.70;85.20;;;;;;5076081;28;20020;-60
2021/11/28 02:19:30;;;;;;;6.88;3.10;;;27.70;85.50;;;;;;5082033;28;20051;-48
2021/11/28 02:21:57;;;;;;;10.82;3.17;;;27.70;85.50;;;;;;5073496;28;20033;-50
2021/11/28 02:24:32;;;;;;;7.43;3.35;;;27.80;84.70;;;;;;5075677;28;20361;-45
2021/11/28 02:29:45;;;;;;;6.05;2.92;;;28.00;84.10;;;;;;5064703;28;20013;-46
2021/11/28 02:32:15;;;;;;;8.32;2.38;;;28.10;83.70;;;;;;5064649;28;20021;-48
2021/11/28 02:34:45;;;;;;;4.85;2.40;;;28.10;83.20;;;;;;5075829;28;20255;-44
2021/11/28 02:37:14;;;;;;;6.00;2.30;;;28.20;82.90;;;;;;5073676;28;20028;-49
2021/11/28 02:40:23;;;;;;;4.22;2.45;;;28.20;82.70;;;;;;5073466;28;20021;-48
2021/11/28 02:42:39;;;;;;;5.53;2.75;;;28.20;82.70;;;;;;5059535;28;20052;-47
2021/11/28 02:45:10;;;;;;;3.95;2.80;;;28.20;82.60;;;;;;5077110;28;20109;-48
2021/11/28 02:47:37;;;;;;;8.50;2.85;;;28.30;82.60;;;;;;5075287;28;20017;-48
2021/11/28 02:50:15;;;;;;;6.82;2.78;;;28.30;82.50;;;;;;5084223;28;20012;-47
2021/11/28 02:52:53;;;;;;;6.07;2.88;;;28.20;82.50;;;;;;5067925;28;20031;-45
2021/11/28 02:56:06;;;;;;;;;;;;;;;;;;;;;
2021/11/28 17:37:27;;;;;;;9.38;7.80;;;28.50;90.50;;;;;;5101783;27;20400;-48
2021/11/28 17:39:54;;;;;;;8.70;7.90;;;28.50;90.80;;;;;;5101352;28;20050;-49
2021/11/28 17:42:21;;;;;;;9.07;7.72;;;28.60;91.20;;;;;;5100592;28;20024;-51
2021/11/28 17:44:47;;;;;;;10.55;6.55;;;28.70;91.00;;;;;;5101086;28;20296;-55
2021/11/28 17:47:14;;;;;;;6.97;6.28;;;28.80;91.20;;;;;;5101033;28;20020;-47
2021/11/28 17:49:43;;;;;;;7.50;6.65;;;28.90;90.70;;;;;;5101095;28;20020;-49
2021/11/28 17:52:09;;;;;;;8.48;6.07;;;29.00;90.50;;;;;;5101582;28;20044;-50
2021/11/28 17:54:36;;;;;;;8.02;6.30;;;29.10;90.40;;;;;;5098262;28;20028;-53
2021/11/28 17:57:03;;;;;;;13.73;10.00;;;29.10;90.20;;;;;;5100428;28;20028;-47
2021/11/28 17:59:31;;;;;;;16.27;13.90;;;29.20;90.40;;;;;;5100735;28;20012;-56
2021/11/28 18:01:58;;;;;;;12.65;9.73;;;29.20;90.20;;;;;;5081736;28;20016;-51
2021/11/28 18:04:24;;;;;;;8.38;7.25;;;29.30;89.90;;;;;;5099766;28;20008;-53
2021/11/28 18:06:51;;;;;;;6.30;5.70;;;29.30;89.20;;;;;;5100232;28;20025;-51
2021/11/28 18:09:18;;;;;;;7.93;5.40;;;29.30;87.90;;;;;;5116139;28;20047;-57
2021/11/28 18:11:46;;;;;;;7.03;5.75;;;29.30;88.20;;;;;;5121779;28;20212;-53
2021/11/28 18:14:12;;;;;;;6.90;6.18;;;29.30;89.20;;;;;;5119873;28;20016;-55
2021/11/28 18:16:39;;;;;;;7.22;6.35;;;29.30;88.70;;;;;;5120798;28;20040;-51
2021/11/28 18:19:06;;;;;;;6.60;5.60;;;29.40;88.90;;;;;;5120893;28;20012;-51
2021/11/28 18:21:32;;;;;;;8.57;6.18;;;29.40;88.20;;;;;;5120221;28;20020;-51
2021/11/28 18:23:59;;;;;;;7.72;6.47;;;29.50;88.60;;;;;;5119345;28;20396;-47
2021/11/28 18:26:25;;;;;;;6.40;5.82;;;29.40;88.40;;;;;;5119399;28;20205;-49
2021/11/28 18:28:52;;;;;;;7.03;5.93;;;29.50;88.50;;;;;;5100866;28;20023;-54
2021/11/28 18:31:19;;;;;;;8.38;6.13;;;29.50;88.40;;;;;;5119332;28;20031;-54
2021/11/28 18:33:47;;;;;;;5.75;5.25;;;29.50;88.50;;;;;;5119203;28;20020;-58
2021/11/28 18:36:14;;;;;;;6.53;5.88;;;29.50;87.70;;;;;;5101533;28;20080;-52
2021/11/28 18:38:41;;;;;;;7.70;5.70;;;29.50;88.20;;;;;;5121353;28;20078;-47
2021/11/28 18:41:08;;;;;;;6.22;5.65;;;29.50;88.10;;;;;;5121113;28;20368;-52
2021/11/28 18:43:34;;;;;;;6.28;5.68;;;29.60;88.00;;;;;;5120505;28;20018;-50
2021/11/28 18:46:07;;;;;;;6.35;5.75;;;29.60;88.20;;;;;;5120636;28;20028;-52
2021/11/28 18:48:33;;;;;;;6.55;5.95;;;29.60;88.30;;;;;;5108223;28;20016;-54
2021/11/28 18:51:00;;;;;;;6.88;6.07;;;29.60;88.10;;;;;;5089051;28;20035;-53
2021/11/28 18:53:27;;;;;;;7.05;5.93;;;29.60;86.70;;;;;;5106794;28;20289;-57
2021/11/28 18:55:53;;;;;;;6.07;5.57;;;29.60;86.80;;;;;;5107004;28;20032;-48
2021/11/28 18:58:20;;;;;;;7.55;5.68;;;29.60;87.10;;;;;;5106936;28;20074;-43
2021/11/28 19:00:47;;;;;;;6.30;5.70;;;29.60;86.40;;;;;;5088493;28;20036;-50
2021/11/28 19:03:13;;;;;;;6.35;5.75;;;29.60;86.40;;;;;;5106869;28;20315;-45
2021/11/28 19:05:40;;;;;;;6.22;5.63;;;29.60;85.60;;;;;;5088535;28;20208;-51
2021/11/28 19:08:07;;;;;;;5.93;5.43;;;29.70;85.90;;;;;;5106396;28;20305;-49
2021/11/28 19:10:34;;;;;;;6.80;5.97;;;29.60;85.90;;;;;;5106810;28;20032;-50
2021/11/28 19:13:00;;;;;;;6.32;5.72;;;29.60;85.40;;;;;;5106602;28;20234;-47
2021/11/28 19:15:29;;;;;;;6.78;6.05;;;29.70;85.60;;;;;;5106336;28;20032;-55
2021/11/28 19:17:56;;;;;;;6.28;5.07;;;29.70;85.20;;;;;;5106299;28;20016;-51
2021/11/28 19:20:23;;;;;;;8.73;6.13;;;29.70;85.50;;;;;;5106248;28;20024;-52
2021/11/28 19:22:49;;;;;;;7.25;6.10;;;29.70;85.30;;;;;;5106202;28;20027;-51
2021/11/28 19:25:17;;;;;;;6.18;5.57;;;29.70;85.50;;;;;;5106273;28;20035;-43
2021/11/28 19:27:44;;;;;;;6.07;5.45;;;29.70;85.40;;;;;;5088315;28;20026;-47
2021/11/28 19:30:11;;;;;;;6.05;5.55;;;29.70;85.90;;;;;;5088802;28;20024;-47
2021/11/28 19:32:38;;;;;;;6.22;5.72;;;29.70;85.40;;;;;;5106119;28;20297;-54
2021/11/28 19:35:06;;;;;;;7.05;6.35;;;29.70;85.20;;;;;;5106084;28;20020;-54
2021/11/28 19:37:33;;;;;;;6.43;5.82;;;29.70;85.20;;;;;;5106152;28;20095;-53
2021/11/28 19:40:00;;;;;;;6.15;5.55;;;29.70;85.10;;;;;;5106385;28;20074;-52
2021/11/28 19:42:27;;;;;;;9.05;5.60;;;29.70;85.30;;;;;;5105840;28;20189;-49
2021/11/28 19:44:53;;;;;;;6.05;5.47;;;29.70;85.00;;;;;;5105408;28;20016;-50
2021/11/28 19:47:20;;;;;;;6.50;5.90;;;29.80;85.10;;;;;;5106112;28;20073;-50
2021/11/28 19:49:47;;;;;;;6.05;5.55;;;29.70;85.00;;;;;;5106069;28;20016;-46
2021/11/28 19:52:15;;;;;;;5.72;5.22;;;29.70;84.50;;;;;;5106424;28;20367;-54
2021/11/28 19:54:43;;;;;;;6.53;5.93;;;29.80;84.60;;;;;;5087517;28;20035;-54
2021/11/28 19:57:09;;;;;;;6.68;5.68;;;29.80;84.40;;;;;;5106299;28;20030;-54
2021/11/28 19:59:36;;;;;;;7.35;5.43;;;29.80;84.40;;;;;;5087047;28;20098;-55
2021/11/28 20:02:02;;;;;;;9.20;6.05;;;29.80;84.60;;;;;;5105587;28;20030;-54
2021/11/28 20:04:29;;;;;;;6.93;6.22;;;29.80;84.60;;;;;;5087992;28;20224;-53
2021/11/28 20:06:59;;;;;;;6.40;5.78;;;29.80;84.70;;;;;;5087468;28;20103;-48
2021/11/28 20:09:27;;;;;;;7.65;6.15;;;29.80;84.90;;;;;;5105290;28;20332;-50
2021/11/28 20:11:54;;;;;;;6.38;5.88;;;29.80;84.50;;;;;;5106186;28;20036;-47
2021/11/28 20:14:21;;;;;;;8.60;5.93;;;29.80;84.60;;;;;;5105471;28;20087;-46
2021/11/28 20:16:54;;;;;;;13.75;6.28;;;29.80;84.70;;;;;;5105446;28;20028;-48
2021/11/28 20:19:28;;;;;;;8.13;5.65;;;29.80;85.00;;;;;;5105502;28;20012;-50
2021/11/28 20:21:57;;;;;;;6.72;6.00;;;29.80;84.80;;;;;;5105837;28;20028;-51
2021/11/28 20:24:24;;;;;;;5.93;5.43;;;29.80;84.70;;;;;;5087244;28;20244;-51
2021/11/28 20:26:51;;;;;;;6.72;6.07;;;29.90;83.80;;;;;;5105403;28;20325;-49
2021/11/28 20:29:18;;;;;;;7.07;6.38;;;29.80;84.20;;;;;;5105515;28;20024;-51
2021/11/28 20:31:46;;;;;;;6.55;5.72;;;29.80;84.60;;;;;;5105061;28;20065;-52
2021/11/28 20:34:15;;;;;;;6.40;5.85;;;29.80;84.40;;;;;;5086909;28;20095;-50
2021/11/28 20:36:42;;;;;;;7.05;6.13;;;29.90;84.70;;;;;;5104976;28;20355;-56
2021/11/28 20:39:13;;;;;;;6.30;5.70;;;29.90;84.70;;;;;;5105144;28;20091;-47
2021/11/28 20:41:40;;;;;;;6.50;5.90;;;29.80;84.50;;;;;;5105687;28;20047;-48
2021/11/28 20:44:12;;;;;;;6.55;5.95;;;29.80;84.20;;;;;;5105058;28;20071;-50
2021/11/28 20:46:40;;;;;;;7.20;5.70;;;29.90;84.50;;;;;;5086640;28;20028;-51
2021/11/28 20:49:08;;;;;;;6.65;6.05;;;29.90;84.70;;;;;;5104701;28;20082;-50
2021/11/28 20:51:35;;;;;;;6.55;6.05;;;29.90;84.40;;;;;;5105131;28;20213;-56
2021/11/28 20:54:03;;;;;;;11.43;5.72;;;29.90;84.10;;;;;;5104601;28;20039;-48
2021/11/28 20:56:31;;;;;;;11.48;6.15;;;29.90;84.20;;;;;;5104564;28;20085;-46
2021/11/28 20:58:58;;;;;;;6.60;5.70;;;29.80;83.50;;;;;;5104966;28;20012;-50
2021/11/28 21:01:26;;;;;;;6.65;6.03;;;29.80;84.20;;;;;;5105189;28;20091;-52
2021/11/28 21:03:54;;;;;;;6.40;5.90;;;29.80;84.20;;;;;;5104632;28;20047;-48
2021/11/28 21:06:21;;;;;;;6.45;5.88;;;29.80;84.30;;;;;;5087802;28;20043;-56
2021/11/28 21:08:48;;;;;;;6.90;6.30;;;29.80;84.30;;;;;;5084227;28;20016;-56
2021/11/28 21:11:16;;;;;;;6.68;5.53;;;29.80;84.80;;;;;;5080192;28;20298;-58
2021/11/28 21:13:45;;;;;;;7.22;5.50;;;29.80;84.00;;;;;;5104307;28;20023;-58
2021/11/28 21:16:14;;;;;;;8.05;6.38;;;29.80;84.40;;;;;;5104151;28;20039;-49
2021/11/28 21:18:42;;;;;;;10.30;6.03;;;29.80;84.10;;;;;;5104369;28;20204;-48
2021/11/28 21:21:12;;;;;;;13.25;6.15;;;29.80;84.50;;;;;;5104495;28;20024;-52
2021/11/28 21:23:40;;;;;;;9.45;6.35;;;29.80;84.60;;;;;;5104207;28;20186;-54
2021/11/28 21:26:07;;;;;;;6.88;6.28;;;29.80;84.90;;;;;;5103823;28;20028;-55
2021/11/28 21:28:33;;;;;;;15.65;6.75;;;29.80;84.80;;;;;;5102564;28;20024;-47
2021/11/28 21:31:01;;;;;;;15.05;6.50;;;29.80;85.10;;;;;;5102661;28;20072;-50
2021/11/28 21:33:28;;;;;;;7.60;6.40;;;29.80;84.80;;;;;;5084504;28;20024;-53
2021/11/28 21:35:55;;;;;;;8.82;6.55;;;29.80;85.00;;;;;;5102240;28;20047;-51
2021/11/28 21:38:22;;;;;;;7.93;6.57;;;29.80;84.80;;;;;;5102443;28;20027;-54
2021/11/28 21:40:50;;;;;;;9.80;6.38;;;29.80;85.00;;;;;;5102442;28;20419;-51
2021/11/28 21:43:18;;;;;;;9.20;6.68;;;29.80;85.10;;;;;;5104111;28;20336;-48
2021/11/28 21:45:46;;;;;;;7.35;6.55;;;29.80;85.30;;;;;;5104047;28;20031;-53
2021/11/28 21:48:13;;;;;;;7.20;6.22;;;29.80;85.40;;;;;;5104074;28;20027;-55
2021/11/28 21:50:43;;;;;;;8.57;6.80;;;29.80;85.70;;;;;;5104416;28;20027;-50
2021/11/28 21:53:11;;;;;;;7.18;6.53;;;29.80;85.80;;;;;;5104076;28;20039;-49
2021/11/28 21:55:40;;;;;;;8.30;7.50;;;29.70;85.90;;;;;;5103856;28;20300;-50
2021/11/28 21:58:08;;;;;;;8.10;7.32;;;29.80;86.30;;;;;;5069393;28;20138;-53
2021/11/28 22:00:37;;;;;;;7.63;6.97;;;29.70;86.20;;;;;;5103847;28;20052;-50
2021/11/28 22:03:04;;;;;;;10.85;7.78;;;29.70;86.60;;;;;;5103931;28;20035;-55
2021/11/28 22:05:32;;;;;;;7.88;6.80;;;29.60;86.60;;;;;;5086826;28;20032;-50
2021/11/28 22:07:59;;;;;;;10.63;8.05;;;29.70;86.80;;;;;;5086668;28;20024;-57
2021/11/28 22:10:26;;;;;;;15.18;11.13;;;29.60;87.10;;;;;;5086360;28;20032;-51
2021/11/28 22:12:53;;;;;;;17.25;13.30;;;29.60;87.10;;;;;;5104043;28;20062;-47
2021/11/28 22:15:20;;;;;;;24.90;19.75;;;29.60;87.20;;;;;;5104181;28;20036;-48
2021/11/28 22:17:47;;;;;;;25.05;18.60;;;29.50;87.10;;;;;;5086019;28;20073;-47
2021/11/28 22:20:16;;;;;;;21.60;16.38;;;29.50;87.40;;;;;;5104284;28;20016;-45
2021/11/28 22:22:44;;;;;;;13.93;12.32;;;29.50;87.10;;;;;;5105440;28;20053;-51
2021/11/28 22:25:15;;;;;;;13.10;11.05;;;29.50;87.00;;;;;;5107678;28;20014;-50
2021/11/28 22:27:46;;;;;;;16.15;11.77;;;29.50;87.10;;;;;;5089247;28;20057;-49
2021/11/28 22:30:14;;;;;;;11.82;10.43;;;29.50;87.30;;;;;;5107830;28;20255;-43
2021/11/28 22:32:41;;;;;;;17.90;14.68;;;29.40;87.30;;;;;;5089333;28;20020;-54
2021/11/28 22:35:10;;;;;;;20.45;13.77;;;29.40;87.50;;;;;;5107406;28;20204;-47
2021/11/28 22:37:39;;;;;;;21.13;14.95;;;29.40;87.90;;;;;;5089495;28;20309;-48
2021/11/28 22:40:13;;;;;;;19.40;15.32;;;29.30;87.60;;;;;;5107580;28;20012;-50
2021/11/28 22:42:40;;;;;;;28.83;16.13;;;29.30;87.80;;;;;;5089134;28;20306;-48
2021/11/28 22:45:08;;;;;;;18.75;15.52;;;29.30;88.10;;;;;;5107680;28;20307;-50
2021/11/28 22:47:35;;;;;;;21.90;15.68;;;29.30;88.10;;;;;;5107659;28;20023;-49
2021/11/28 22:50:05;;;;;;;29.70;20.20;;;29.30;88.50;;;;;;5089765;28;20300;-47
2021/11/28 22:52:31;;;;;;;31.35;21.30;;;29.20;88.70;;;;;;5089552;28;20026;-47
2021/11/28 22:54:58;;;;;;;29.88;26.40;;;29.20;89.00;;;;;;5089671;28;20062;-51
2021/11/28 22:57:25;;;;;;;26.83;20.77;;;29.20;89.50;;;;;;5107219;28;20343;-51
2021/11/28 22:59:52;;;;;;;24.73;20.77;;;29.20;89.80;;;;;;5072606;28;20020;-47
2021/11/28 23:02:19;;;;;;;23.40;17.20;;;29.20;89.90;;;;;;5107616;28;20039;-46
2021/11/28 23:04:45;;;;;;;21.15;16.67;;;29.20;89.90;;;;;;5089284;28;20023;-48
2021/11/28 23:07:12;;;;;;;16.15;14.45;;;29.10;89.80;;;;;;5089597;28;20043;-48
2021/11/28 23:09:39;;;;;;;18.30;13.80;;;29.10;89.80;;;;;;5089411;28;20091;-47
2021/11/28 23:12:06;;;;;;;14.50;12.75;;;29.10;89.80;;;;;;5106983;28;20208;-51
2021/11/28 23:14:33;;;;;;;14.63;12.30;;;29.10;89.80;;;;;;5107002;28;20078;-48
2021/11/28 23:17:01;;;;;;;17.15;12.80;;;29.10;89.90;;;;;;5106843;28;20070;-48
2021/11/28 23:19:30;;;;;;;19.75;11.25;;;29.00;89.60;;;;;;5088572;28;20028;-46
2021/11/28 23:21:57;;;;;;;17.38;12.13;;;29.00;89.70;;;;;;5107281;28;20020;-47
2021/11/28 23:24:24;;;;;;;18.20;11.60;;;29.00;89.50;;;;;;5106803;28;20216;-47
2021/11/28 23:26:57;;;;;;;14.52;10.88;;;28.90;89.50;;;;;;5106897;28;20024;-47
2021/11/28 23:29:24;;;;;;;15.27;9.93;;;29.00;89.40;;;;;;5106543;28;20216;-50
2021/11/28 23:31:51;;;;;;;10.88;8.45;;;29.00;89.20;;;;;;5106912;28;20032;-45
2021/11/28 23:34:18;;;;;;;8.95;7.82;;;29.00;88.90;;;;;;5106270;28;20012;-48
2021/11/28 23:36:45;;;;;;;11.80;7.63;;;28.90;88.60;;;;;;5106627;28;20047;-47
2021/11/28 23:39:11;;;;;;;7.60;6.70;;;28.90;88.80;;;;;;5089133;28;20024;-46
2021/11/28 23:41:38;;;;;;;8.82;6.75;;;28.90;88.70;;;;;;5088169;28;20073;-49
2021/11/28 23:44:05;;;;;;;7.80;6.32;;;28.90;88.70;;;;;;5088374;28;20020;-49
2021/11/28 23:46:32;;;;;;;8.70;6.38;;;28.90;88.70;;;;;;5088484;28;20099;-53
2021/11/28 23:48:59;;;;;;;11.05;6.40;;;28.90;88.60;;;;;;5088193;28;20091;-48
2021/11/28 23:51:27;;;;;;;8.50;6.00;;;28.90;88.70;;;;;;5106790;28;20091;-53
2021/11/28 23:53:54;;;;;;;8.07;6.20;;;28.80;88.80;;;;;;5088579;28;20020;-49
2021/11/28 23:56:21;;;;;;;14.73;6.57;;;28.80;88.80;;;;;;5106819;28;20028;-46
2021/11/28 23:58:48;;;;;;;7.07;6.38;;;28.80;88.80;;;;;;5106116;28;20020;-50
